createdAt,value
2017-10-11T00:02:07.795Z,6.00
2017-10-11T00:04:36.071Z,8.10
2017-10-11T00:07:05.132Z,10.85
2017-10-11T00:09:34.912Z,8.75
2017-10-11T00:12:03.183Z,7.32
2017-10-11T00:14:31.648Z,6.22
2017-10-11T00:16:59.915Z,5.65
2017-10-11T00:19:28.182Z,7.68
2017-10-11T00:21:56.466Z,7.30
2017-10-11T00:24:24.737Z,5.72
2017-10-11T00:26:53.031Z,5.60
2017-10-11T00:29:21.307Z,6.90
2017-10-11T00:31:49.571Z,5.85
2017-10-11T00:34:17.852Z,6.90
2017-10-11T00:36:46.883Z,8.25
2017-10-11T00:39:15.171Z,5.80
2017-10-11T00:41:43.443Z,5.97
2017-10-11T00:44:11.709Z,8.10
2017-10-11T00:46:40.755Z,6.83
2017-10-11T00:49:09.023Z,6.40
2017-10-11T00:51:37.291Z,7.90
2017-10-11T00:54:05.588Z,8.95
2017-10-11T00:56:34.615Z,8.60
2017-10-11T00:59:02.899Z,6.10
2017-10-11T01:01:31.259Z,6.37
2017-10-11T01:03:59.559Z,6.80
2017-10-11T01:06:27.828Z,7.43
2017-10-11T01:08:56.092Z,6.68
2017-10-11T01:11:24.374Z,6.35
2017-10-11T01:13:52.647Z,7.05
2017-10-11T01:16:20.931Z,5.70
2017-10-11T01:18:49.203Z,6.50
2017-10-11T01:21:17.516Z,8.65
2017-10-11T01:23:45.792Z,6.35
2017-10-11T01:26:14.059Z,7.70
2017-10-11T01:28:42.347Z,5.25
2017-10-11T01:31:10.624Z,6.05
2017-10-11T01:33:39.696Z,5.80
2017-10-11T01:36:08.731Z,5.90
2017-10-11T01:38:37.003Z,5.67
2017-10-11T01:41:05.287Z,4.95
2017-10-11T01:43:33.555Z,5.15
2017-10-11T01:46:02.607Z,5.20
2017-10-11T01:48:30.875Z,5.53
2017-10-11T01:50:59.187Z,6.10
2017-10-11T01:53:27.446Z,5.25
2017-10-11T01:55:55.738Z,6.07
2017-10-11T01:58:24.019Z,5.50
2017-10-11T02:00:52.287Z,6.62
2017-10-11T02:03:22.107Z,5.05
2017-10-11T02:05:51.139Z,4.97
2017-10-11T02:08:19.408Z,4.00
2017-10-11T02:10:47.696Z,5.62
2017-10-11T02:13:15.964Z,5.03
2017-10-11T02:15:45.012Z,5.82
2017-10-11T02:18:13.311Z,6.45
2017-10-11T02:20:41.581Z,5.10
2017-10-11T02:23:10.606Z,4.57
2017-10-11T02:25:38.907Z,4.30
2017-10-11T02:28:07.959Z,5.80
2017-10-11T02:30:36.222Z,6.00
2017-10-11T02:33:04.503Z,4.07
2017-10-11T02:35:33.540Z,4.78
2017-10-11T02:38:01.827Z,4.00
2017-10-11T02:40:30.091Z,6.82
2017-10-11T02:42:58.402Z,7.12
2017-10-11T02:45:26.691Z,6.65
2017-10-11T02:47:54.945Z,5.17
2017-10-11T02:50:23.228Z,5.03
2017-10-11T02:52:51.491Z,5.15
2017-10-11T02:55:19.971Z,4.25
2017-10-11T02:57:48.235Z,7.90
2017-10-11T03:00:16.510Z,6.15
2017-10-11T03:02:45.564Z,7.43
2017-10-11T03:05:13.836Z,6.18
2017-10-11T03:07:42.135Z,5.45
2017-10-11T03:10:10.407Z,5.45
2017-10-11T03:12:38.667Z,6.15
2017-10-11T03:15:06.947Z,4.60
2017-10-11T03:17:35.263Z,6.87
2017-10-11T03:20:04.335Z,4.93
2017-10-11T03:22:33.367Z,5.35
2017-10-11T03:25:01.641Z,5.30
2017-10-11T03:27:29.995Z,4.47
2017-10-11T03:29:58.259Z,4.82
2017-10-11T03:32:28.263Z,6.95
2017-10-11T03:34:56.538Z,4.78
2017-10-11T03:37:24.807Z,5.17
2017-10-11T03:39:53.070Z,7.93
2017-10-11T03:42:21.390Z,5.78
2017-10-11T03:44:49.650Z,5.45
2017-10-11T03:47:17.923Z,4.47
2017-10-11T03:49:46.203Z,4.95
2017-10-11T03:52:14.472Z,5.97
2017-10-11T03:54:42.750Z,4.97
2017-10-11T03:57:11.782Z,5.65
2017-10-11T03:59:40.083Z,4.32
2017-10-11T04:02:09.123Z,4.37
2017-10-11T04:04:37.386Z,5.20
2017-10-11T04:07:05.670Z,5.30
2017-10-11T04:09:35.448Z,5.23
2017-10-11T04:12:03.856Z,4.30
2017-10-11T04:14:32.895Z,4.97
2017-10-11T04:17:01.147Z,4.97
2017-10-11T04:19:29.452Z,8.07
2017-10-11T04:21:58.474Z,6.20
2017-10-11T04:24:26.791Z,6.50
2017-10-11T04:26:55.832Z,4.75
2017-10-11T04:29:24.112Z,4.60
2017-10-11T04:31:52.391Z,5.15
2017-10-11T04:34:21.443Z,5.00
2017-10-11T04:36:49.738Z,4.80
2017-10-11T04:39:18.771Z,10.80
2017-10-11T04:41:47.045Z,5.05
2017-10-11T04:44:15.327Z,5.47
2017-10-11T04:46:43.599Z,4.55
2017-10-11T04:49:12.672Z,5.00
2017-10-11T04:51:41.698Z,6.60
2017-10-11T04:54:09.968Z,5.30
2017-10-11T04:56:38.246Z,7.03
2017-10-11T04:59:06.516Z,6.03
2017-10-11T05:01:34.923Z,6.30
2017-10-11T05:04:03.203Z,5.72
2017-10-11T05:06:31.467Z,6.57
2017-10-11T05:08:59.746Z,5.70
2017-10-11T05:11:28.019Z,4.78
2017-10-11T05:13:56.323Z,5.75
2017-10-11T05:16:25.350Z,6.45
2017-10-11T05:18:53.627Z,6.55
2017-10-11T05:21:21.907Z,4.55
2017-10-11T05:23:50.942Z,6.18
2017-10-11T05:26:19.259Z,5.35
2017-10-11T05:28:48.298Z,5.22
2017-10-11T05:31:16.563Z,5.28
2017-10-11T05:33:44.851Z,6.00
2017-10-11T05:36:13.903Z,6.93
2017-10-11T05:38:42.203Z,6.22
2017-10-11T05:41:11.231Z,5.85
2017-10-11T05:43:39.502Z,5.95
2017-10-11T05:46:09.287Z,5.90
2017-10-11T05:48:37.556Z,4.85
2017-10-11T05:51:06.755Z,7.30
2017-10-11T05:53:35.025Z,5.60
2017-10-11T05:56:03.299Z,5.65
2017-10-11T05:58:32.351Z,6.28
2017-10-11T06:01:00.620Z,7.53
2017-10-11T06:03:28.933Z,7.20
2017-10-11T06:05:57.198Z,6.85
2017-10-11T06:08:25.474Z,6.35
2017-10-11T06:10:53.760Z,6.50
2017-10-11T06:13:22.019Z,6.05
2017-10-11T06:15:50.493Z,6.78
2017-10-11T06:18:20.259Z,5.43
2017-10-11T06:20:48.539Z,8.13
2017-10-11T06:23:16.828Z,7.30
2017-10-11T06:25:45.875Z,7.47
2017-10-11T06:28:14.134Z,6.45
2017-10-11T06:30:43.401Z,7.35
2017-10-11T06:33:11.666Z,6.70
2017-10-11T06:35:39.983Z,7.93
2017-10-11T06:38:09.010Z,7.95
2017-10-11T06:40:37.279Z,6.37
2017-10-11T06:43:05.569Z,5.20
2017-10-11T06:45:34.604Z,6.20
2017-10-11T06:48:02.923Z,6.10
2017-10-11T06:50:31.191Z,6.87
2017-10-11T06:53:00.251Z,5.72
2017-10-11T06:55:28.532Z,5.95
2017-10-11T06:57:57.559Z,8.97
2017-10-11T07:00:25.878Z,5.00
2017-10-11T07:02:54.138Z,5.95
2017-10-11T07:05:22.406Z,6.30
2017-10-11T07:07:50.749Z,6.30
2017-10-11T07:10:19.779Z,8.98
2017-10-11T07:12:48.095Z,6.15
2017-10-11T07:15:17.126Z,5.40
2017-10-11T07:17:45.401Z,7.12
2017-10-11T07:20:13.670Z,5.00
2017-10-11T07:22:41.943Z,6.50
2017-10-11T07:25:11.118Z,6.75
2017-10-11T07:27:39.383Z,4.82
2017-10-11T07:30:08.415Z,5.60
2017-10-11T07:32:36.713Z,7.35
2017-10-11T07:35:04.983Z,8.02
2017-10-11T07:37:33.436Z,4.87
2017-10-11T07:40:01.695Z,7.13
2017-10-11T07:42:29.993Z,6.80
2017-10-11T07:44:59.063Z,4.78
2017-10-11T07:47:28.091Z,8.45
2017-10-11T07:49:56.399Z,5.70
2017-10-11T07:52:25.426Z,5.80
2017-10-11T07:54:53.695Z,4.87
2017-10-11T07:57:21.979Z,6.72
2017-10-11T07:59:50.260Z,5.43
2017-10-11T08:02:19.347Z,4.87
2017-10-11T08:04:48.381Z,5.43
2017-10-11T08:07:16.670Z,5.00
2017-10-11T08:09:44.945Z,6.62
2017-10-11T08:12:13.974Z,5.78
2017-10-11T08:14:42.263Z,5.20
2017-10-11T08:17:10.525Z,6.32
2017-10-11T08:19:38.818Z,4.72
2017-10-11T08:22:07.079Z,5.05
2017-10-11T08:24:35.516Z,5.40
2017-10-11T08:27:04.556Z,5.60
2017-10-11T08:29:32.819Z,5.00
2017-10-11T08:32:01.107Z,13.23
2017-10-11T08:34:29.371Z,9.23
2017-10-11T08:36:57.680Z,5.17
2017-10-11T08:39:25.950Z,5.75
2017-10-11T08:41:54.220Z,4.78
2017-10-11T08:44:22.504Z,4.07
2017-10-11T08:46:50.768Z,7.00
2017-10-11T08:49:19.068Z,4.43
2017-10-11T08:51:48.101Z,4.05
2017-10-11T08:54:17.738Z,4.20
2017-10-11T08:56:46.787Z,4.18
2017-10-11T08:59:15.051Z,4.10
2017-10-11T09:01:43.379Z,4.95
2017-10-11T09:04:11.647Z,5.20
2017-10-11T09:06:39.912Z,4.55
2017-10-11T09:09:08.195Z,5.12
2017-10-11T09:11:36.466Z,4.70
2017-10-11T09:14:04.773Z,4.20
2017-10-11T09:16:33.043Z,3.80
2017-10-11T09:19:01.315Z,3.50
2017-10-11T09:21:30.411Z,4.07
2017-10-11T09:23:58.688Z,3.28
2017-10-11T09:26:26.991Z,2.95
2017-10-11T09:28:55.256Z,3.62
2017-10-11T09:31:23.524Z,3.15
2017-10-11T09:33:51.824Z,3.53
2017-10-11T09:36:20.078Z,3.55
2017-10-11T09:38:48.401Z,3.83
2017-10-11T09:41:16.655Z,5.07
2017-10-11T09:43:44.923Z,4.18
2017-10-11T09:46:13.235Z,5.25
2017-10-11T09:48:41.500Z,4.37
2017-10-11T09:51:09.776Z,4.37
2017-10-11T09:53:38.827Z,3.37
2017-10-11T09:56:07.099Z,4.05
2017-10-11T09:58:35.371Z,3.20
2017-10-11T10:01:03.650Z,3.53
2017-10-11T10:03:31.943Z,4.35
2017-10-11T10:06:00.236Z,4.25
2017-10-11T10:08:28.527Z,3.47
2017-10-11T10:10:57.563Z,3.72
2017-10-11T10:13:25.849Z,3.58
2017-10-11T10:15:54.118Z,4.12
2017-10-11T10:18:23.191Z,4.62
2017-10-11T10:20:51.460Z,3.72
2017-10-11T10:23:20.488Z,3.70
2017-10-11T10:25:48.774Z,2.70
2017-10-11T10:28:17.049Z,4.57
2017-10-11T10:30:45.352Z,3.28
2017-10-11T10:33:13.623Z,2.83
2017-10-11T10:35:41.894Z,2.97
2017-10-11T10:38:10.178Z,2.12
2017-10-11T10:40:38.475Z,2.25
2017-10-11T10:43:06.783Z,2.17
2017-10-11T10:45:35.047Z,2.50
2017-10-11T10:48:03.316Z,1.90
2017-10-11T10:50:31.610Z,1.67
2017-10-11T10:52:59.898Z,1.70
2017-10-11T10:55:28.202Z,4.00
2017-10-11T10:57:56.471Z,1.40
2017-10-11T11:00:24.751Z,1.85
2017-10-11T11:02:53.039Z,2.17
2017-10-11T11:05:21.313Z,0.95
2017-10-11T11:07:49.606Z,1.00
2017-10-11T11:10:17.879Z,1.40
2017-10-11T11:12:46.139Z,1.00
2017-10-11T11:15:14.429Z,0.88
2017-10-11T11:17:43.466Z,2.00
2017-10-11T11:20:11.752Z,1.10
2017-10-11T11:22:40.021Z,1.10
2017-10-11T11:25:08.340Z,1.08
2017-10-11T11:27:36.640Z,2.03
2017-10-11T11:30:04.890Z,1.65
2017-10-11T11:32:33.187Z,1.45
2017-10-11T11:35:02.223Z,1.35
2017-10-11T11:37:30.555Z,1.40
2017-10-11T11:39:58.821Z,1.20
2017-10-11T11:42:27.104Z,1.25
2017-10-11T11:44:55.384Z,1.23
2017-10-11T11:47:23.665Z,1.50
2017-10-11T11:49:53.771Z,1.20
2017-10-11T11:52:22.041Z,1.20
2017-10-11T11:54:51.068Z,1.08
2017-10-11T11:57:19.352Z,1.02
2017-10-11T11:59:47.622Z,1.67
2017-10-11T12:02:15.994Z,1.80
2017-10-11T12:04:45.031Z,1.35
2017-10-11T12:07:13.299Z,1.60
2017-10-11T12:09:41.586Z,1.48
2017-10-11T12:12:10.623Z,1.60
2017-10-11T12:14:38.940Z,2.55
2017-10-11T12:17:07.976Z,1.25
2017-10-11T12:19:36.248Z,1.90
2017-10-11T12:22:04.532Z,1.40
2017-10-11T12:24:32.816Z,1.23
2017-10-11T12:27:01.122Z,1.27
2017-10-11T12:29:30.220Z,1.67
2017-10-11T12:31:58.479Z,1.20
2017-10-11T12:34:26.872Z,1.60
2017-10-11T12:36:55.919Z,1.83
2017-10-11T12:39:24.391Z,5.90
2017-10-11T12:41:52.654Z,1.50
2017-10-11T12:44:20.935Z,2.72
2017-10-11T12:46:49.207Z,1.80
2017-10-11T12:49:17.483Z,1.65
2017-10-11T12:51:45.759Z,1.35
2017-10-11T12:54:14.022Z,1.70
2017-10-11T12:56:42.709Z,2.67
2017-10-11T12:59:10.984Z,2.95
2017-10-11T13:01:39.247Z,1.23
2017-10-11T13:04:07.527Z,3.60
2017-10-11T13:06:36.563Z,1.90
2017-10-11T13:09:04.880Z,1.67
2017-10-11T13:11:34.031Z,1.60
2017-10-11T13:14:02.299Z,1.27
2017-10-11T13:16:30.579Z,1.27
2017-10-11T13:18:59.613Z,1.12
2017-10-11T13:21:27.899Z,1.55
2017-10-11T13:23:56.179Z,1.12
2017-10-11T13:26:24.475Z,1.23
2017-10-11T13:28:52.747Z,1.30
2017-10-11T13:31:21.015Z,1.87
2017-10-11T13:33:49.304Z,1.20
2017-10-11T13:36:17.570Z,1.60
2017-10-11T13:38:45.881Z,1.20
2017-10-11T13:41:14.151Z,1.60
2017-10-11T13:43:42.475Z,1.50
2017-10-11T13:46:11.520Z,2.78
2017-10-11T13:48:39.788Z,2.37
2017-10-11T13:51:08.126Z,3.85
2017-10-11T13:53:36.386Z,1.50
2017-10-11T13:56:04.659Z,2.87
2017-10-11T13:58:32.960Z,3.05
2017-10-11T14:01:01.219Z,1.45
2017-10-11T14:03:30.356Z,1.73
2017-10-11T14:05:58.627Z,1.58
2017-10-11T14:08:26.903Z,1.40
2017-10-11T14:10:55.192Z,2.05
2017-10-11T14:13:24.223Z,1.20
2017-10-11T14:15:52.856Z,1.77
2017-10-11T14:18:21.427Z,3.60
2017-10-11T14:20:49.719Z,2.45
2017-10-11T14:23:18.002Z,1.10
2017-10-11T14:25:46.276Z,2.40
2017-10-11T14:28:14.602Z,1.17
2017-10-11T14:30:42.881Z,1.65
2017-10-11T14:33:11.307Z,1.12
2017-10-11T14:35:39.882Z,1.52
2017-10-11T14:38:08.424Z,1.77
2017-10-11T14:40:37.011Z,1.65
2017-10-11T14:43:05.582Z,1.30
2017-10-11T14:45:34.839Z,2.10
2017-10-11T14:48:03.433Z,1.50
2017-10-11T14:50:31.687Z,1.62
2017-10-11T14:52:59.975Z,1.77
2017-10-11T14:55:28.233Z,1.50
2017-10-11T14:57:56.535Z,1.30
2017-10-11T15:00:24.878Z,1.55
2017-10-11T15:02:53.390Z,1.48
2017-10-11T15:05:21.876Z,1.30
2017-10-11T15:07:50.430Z,1.40
2017-10-11T15:10:18.832Z,2.40
2017-10-11T15:12:47.187Z,1.80
2017-10-11T15:15:15.488Z,2.28
2017-10-11T15:17:44.546Z,1.35
2017-10-11T15:20:13.162Z,1.80
2017-10-11T15:22:41.592Z,1.75
2017-10-11T15:25:09.854Z,2.30
2017-10-11T15:27:38.450Z,3.60
2017-10-11T15:30:07.043Z,2.15
2017-10-11T15:32:35.590Z,2.30
2017-10-11T15:35:04.081Z,2.22
2017-10-11T15:37:32.627Z,1.30
2017-10-11T15:40:01.960Z,2.17
2017-10-11T15:42:30.262Z,1.67
2017-10-11T15:44:58.554Z,1.20
2017-10-11T15:47:27.244Z,5.00
2017-10-11T15:49:55.672Z,1.40
2017-10-11T15:52:24.249Z,1.60
2017-10-11T15:54:52.828Z,2.97
2017-10-11T15:57:22.240Z,1.70
2017-10-11T15:59:50.915Z,1.60
2017-10-11T16:02:19.544Z,1.67
2017-10-11T16:04:47.807Z,2.40
2017-10-11T16:07:16.097Z,1.42
2017-10-11T16:09:44.363Z,1.27
2017-10-11T16:12:12.689Z,2.55
2017-10-11T16:14:40.959Z,1.35
2017-10-11T16:17:09.223Z,1.60
2017-10-11T16:19:37.507Z,1.80
2017-10-11T16:22:05.783Z,1.70
2017-10-11T16:24:34.088Z,1.92
2017-10-11T16:27:02.347Z,1.70
2017-10-11T16:29:30.628Z,2.35
2017-10-11T16:31:58.916Z,1.58
2017-10-11T16:34:27.186Z,2.33
2017-10-11T16:36:55.498Z,2.00
2017-10-11T16:39:23.763Z,1.50
2017-10-11T16:41:52.031Z,3.53
2017-10-11T16:44:20.310Z,3.08
2017-10-11T16:46:48.604Z,2.08
2017-10-11T16:49:17.022Z,2.40
2017-10-11T16:51:45.290Z,2.37
2017-10-11T16:54:13.555Z,5.32
2017-10-11T16:56:41.843Z,3.03
2017-10-11T16:59:10.124Z,2.25
2017-10-11T17:01:39.180Z,2.70
2017-10-11T17:04:07.446Z,3.63
2017-10-11T17:06:35.775Z,2.47
2017-10-11T17:09:04.067Z,1.83
2017-10-11T17:11:32.342Z,1.83
2017-10-11T17:14:01.476Z,3.50
2017-10-11T17:16:30.013Z,5.50
2017-10-11T17:18:58.319Z,4.93
2017-10-11T17:21:26.587Z,2.90
2017-10-11T17:23:54.896Z,4.50
2017-10-11T17:26:23.158Z,5.20
2017-10-11T17:28:51.427Z,3.07
2017-10-11T17:31:19.711Z,3.03
2017-10-11T17:33:47.999Z,4.35
2017-10-11T17:36:16.302Z,3.03
2017-10-11T17:38:45.338Z,2.47
2017-10-11T17:41:13.604Z,5.87
2017-10-11T17:43:41.883Z,5.45
2017-10-11T17:46:10.146Z,4.70
2017-10-11T17:48:39.200Z,5.33
2017-10-11T17:51:07.470Z,2.90
2017-10-11T17:53:35.939Z,4.50
2017-10-11T17:56:04.219Z,3.08
2017-10-11T17:58:33.247Z,3.03
2017-10-11T18:01:01.551Z,3.35
2017-10-11T18:03:29.898Z,3.00
2017-10-11T18:05:58.219Z,5.25
2017-10-11T18:08:26.504Z,3.53
2017-10-11T18:10:54.784Z,8.05
2017-10-11T18:13:23.063Z,4.35
2017-10-11T18:15:52.123Z,3.80
2017-10-11T18:18:20.423Z,4.37
2017-10-11T18:20:48.691Z,3.17
2017-10-11T18:23:16.959Z,3.80
2017-10-11T18:25:45.242Z,6.70
2017-10-11T18:28:16.082Z,5.67
2017-10-11T18:30:44.904Z,10.30
2017-10-11T18:33:13.626Z,3.10
2017-10-11T18:35:41.900Z,8.20
2017-10-11T18:38:10.340Z,5.07
2017-10-11T18:40:39.971Z,6.60
2017-10-11T18:43:08.436Z,4.50
2017-10-11T18:45:37.630Z,4.37
2017-10-11T18:48:07.734Z,4.00
2017-10-11T18:50:36.709Z,5.07
2017-10-11T18:53:14.256Z,5.43
2017-10-11T18:55:44.318Z,4.30
2017-10-11T18:58:14.081Z,5.10
2017-10-11T19:00:45.342Z,4.40
2017-10-11T19:03:13.619Z,7.40
2017-10-11T19:05:41.891Z,5.95
2017-10-11T19:08:10.180Z,5.22
2017-10-11T19:10:38.451Z,4.15
2017-10-11T19:13:06.783Z,6.18
2017-10-11T19:15:35.324Z,5.32
2017-10-11T19:18:03.587Z,5.65
2017-10-11T19:20:35.547Z,3.90
2017-10-11T19:23:04.435Z,4.20
2017-10-11T19:25:32.758Z,3.33
2017-10-11T19:28:01.042Z,2.70
2017-10-11T19:30:29.747Z,3.90
2017-10-11T19:32:58.058Z,3.53
2017-10-11T19:35:26.339Z,2.97
2017-10-11T19:37:54.679Z,3.03
2017-10-11T19:40:22.943Z,6.32
2017-10-11T19:42:51.214Z,5.70
2017-10-11T19:45:19.491Z,3.90
2017-10-11T19:47:47.756Z,3.45
2017-10-11T19:50:16.100Z,3.60
2017-10-11T19:52:44.411Z,4.77
2017-10-11T19:55:12.675Z,7.47
2017-10-11T19:57:41.774Z,6.37
2017-10-11T20:00:13.340Z,5.43
2017-10-11T20:02:41.622Z,3.75
2017-10-11T20:05:09.911Z,3.95
2017-10-11T20:07:38.179Z,5.57
2017-10-11T20:10:06.467Z,3.92
2017-10-11T20:12:34.733Z,6.32
2017-10-11T20:15:03.061Z,5.70
2017-10-11T20:17:31.323Z,9.60
2017-10-11T20:19:59.594Z,7.80
2017-10-11T20:22:28.647Z,3.92
2017-10-11T20:24:56.912Z,5.12
2017-10-11T20:27:26.723Z,8.27
2017-10-11T20:29:55.802Z,3.50
2017-10-11T20:32:24.068Z,6.40
2017-10-11T20:34:52.347Z,5.70
2017-10-11T20:37:20.614Z,5.20
2017-10-11T20:39:48.901Z,4.37
2017-10-11T20:42:17.168Z,5.00
2017-10-11T20:44:45.681Z,3.67
2017-10-11T20:47:13.943Z,5.22
2017-10-11T20:49:42.980Z,3.20
2017-10-11T20:52:11.258Z,3.33
2017-10-11T20:54:39.519Z,2.70
2017-10-11T20:57:07.843Z,3.78
2017-10-11T20:59:36.128Z,8.00
2017-10-11T21:02:04.387Z,3.10
2017-10-11T21:04:32.676Z,5.68
2017-10-11T21:07:00.948Z,3.85
2017-10-11T21:09:29.271Z,5.65
2017-10-11T21:11:57.548Z,3.55
2017-10-11T21:14:25.831Z,3.25
2017-10-11T21:16:54.863Z,5.85
2017-10-11T21:19:23.152Z,4.30
2017-10-11T21:21:51.410Z,8.20
2017-10-11T21:24:19.683Z,3.72
2017-10-11T21:26:49.479Z,4.78
2017-10-11T21:29:17.751Z,4.95
2017-10-11T21:31:46.091Z,4.15
2017-10-11T21:34:14.360Z,5.33
2017-10-11T21:36:42.655Z,3.75
2017-10-11T21:39:10.939Z,6.22
2017-10-11T21:41:39.200Z,8.53
2017-10-11T21:44:07.508Z,5.37
2017-10-11T21:46:35.780Z,5.25
2017-10-11T21:49:04.803Z,4.40
2017-10-11T21:51:33.103Z,5.90
2017-10-11T21:54:01.375Z,4.93
2017-10-11T21:56:30.575Z,4.60
2017-10-11T21:58:59.603Z,5.50
2017-10-11T22:01:27.866Z,6.18
2017-10-11T22:03:56.142Z,4.00
2017-10-11T22:06:24.407Z,7.07
2017-10-11T22:08:52.915Z,4.68
2017-10-11T22:11:21.183Z,4.53
2017-10-11T22:13:49.471Z,4.93
2017-10-11T22:16:17.755Z,6.32
2017-10-11T22:18:46.033Z,6.03
2017-10-11T22:21:14.351Z,5.63
2017-10-11T22:23:42.619Z,6.60
2017-10-11T22:26:10.912Z,4.90
2017-10-11T22:28:39.179Z,8.15
2017-10-11T22:31:08.222Z,12.02
2017-10-11T22:33:36.682Z,5.97
2017-10-11T22:36:04.930Z,4.82
2017-10-11T22:38:33.212Z,3.92
2017-10-11T22:41:01.508Z,4.53
2017-10-11T22:43:29.778Z,3.97
2017-10-11T22:45:58.832Z,4.97
2017-10-11T22:48:27.095Z,4.22
2017-10-11T22:50:55.407Z,5.00
2017-10-11T22:53:23.676Z,5.10
2017-10-11T22:55:51.945Z,4.53
2017-10-11T22:58:20.227Z,5.57
2017-10-11T23:00:48.487Z,5.22
2017-10-11T23:03:16.979Z,4.53
2017-10-11T23:05:45.259Z,5.50
2017-10-11T23:08:14.296Z,4.85
2017-10-11T23:10:42.579Z,5.40
2017-10-11T23:13:10.851Z,10.68
2017-10-11T23:15:39.916Z,5.87
2017-10-11T23:18:08.188Z,5.82
2017-10-11T23:20:36.463Z,5.03
2017-10-11T23:23:05.504Z,4.80
2017-10-11T23:25:33.908Z,6.85
2017-10-11T23:28:02.943Z,6.90
2017-10-11T23:30:31.235Z,6.50
2017-10-11T23:33:00.298Z,4.40
2017-10-11T23:35:30.088Z,6.53
2017-10-11T23:37:58.573Z,4.60
2017-10-11T23:40:26.844Z,6.75
2017-10-11T23:42:55.891Z,4.72
2017-10-11T23:45:24.186Z,5.28
2017-10-11T23:47:53.215Z,4.60
2017-10-11T23:50:21.517Z,5.67
2017-10-11T23:52:50.559Z,5.20
2017-10-11T23:55:18.827Z,7.75
2017-10-11T23:57:47.110Z,13.73
